SWA2750 KAUS-KECP
Flight info
| Callsign | SWA2750 |
|---|---|
| Flight time | 1h 46m |
| Altitude | 37000 |
| Route | ILEXY4 ZENZI LCH J2 DEFUN |
| Aircraft | B738/M-SADE2E3GIJ4RWZ/LB1D1 |
Departure
| Time | 2026-04-23 02:14 |
|---|---|
| Airport | Austin Bergstrom International Airport (KAUS) |
Arrival
| Time | 2026-04-23 04:00 |
|---|---|
| Airport | Northwest Florida Beaches International Airport (KECP) |
| Time | Latitude | Longitude | Altitude | Speed | Heading |
|---|---|---|---|---|---|
| 2026-04-23 01:51 | 30.20143 | -97.66814 | 526 ft | 0 kts | 15° |
| 2026-04-23 02:06 | 30.20135 | -97.66816 | 526 ft | 4 kts | 15° |
| 2026-04-23 02:06 | 30.20109 | -97.66824 | 526 ft | 4 kts | 16° |
| 2026-04-23 02:06 | 30.20085 | -97.66835 | 526 ft | 4 kts | 48° |
| 2026-04-23 02:07 | 30.20079 | -97.66848 | 526 ft | 0 kts | 102° |
| 2026-04-23 02:10 | 30.20079 | -97.66847 | 526 ft | 1 kts | 101° |
| 2026-04-23 02:10 | 30.20067 | -97.66780 | 526 ft | 17 kts | 100° |
| 2026-04-23 02:10 | 30.20076 | -97.66585 | 526 ft | 32 kts | 77° |
| 2026-04-23 02:10 | 30.20000 | -97.66397 | 526 ft | 30 kts | 172° |
| 2026-04-23 02:11 | 30.19914 | -97.66259 | 526 ft | 23 kts | 86° |
| 2026-04-23 02:11 | 30.19921 | -97.66077 | 526 ft | 22 kts | 88° |
| 2026-04-23 02:11 | 30.20036 | -97.65991 | 526 ft | 26 kts | 358° |
| 2026-04-23 02:11 | 30.20227 | -97.65997 | 526 ft | 27 kts | 358° |
| 2026-04-23 02:12 | 30.20371 | -97.65915 | 527 ft | 26 kts | 83° |
| 2026-04-23 02:12 | 30.20345 | -97.65792 | 528 ft | 10 kts | 184° |
| 2026-04-23 02:12 | 30.20322 | -97.65790 | 527 ft | 0 kts | 174° |
| 2026-04-23 02:13 | 30.20316 | -97.65790 | 527 ft | 7 kts | 175° |
| 2026-04-23 02:13 | 30.19995 | -97.65781 | 525 ft | 85 kts | 179° |
| 2026-04-23 02:13 | 30.19185 | -97.65760 | 532 ft | 149 kts | 178° |
| 2026-04-23 02:14 | 30.18026 | -97.65742 | 981 ft | 174 kts | 177° |
| 2026-04-23 02:14 | 30.16862 | -97.65648 | 1970 ft | 165 kts | 157° |
| 2026-04-23 02:14 | 30.16004 | -97.64683 | 2352 ft | 190 kts | 115° |
| 2026-04-23 02:14 | 30.15669 | -97.63112 | 2550 ft | 221 kts | 96° |
| 2026-04-23 02:15 | 30.16922 | -97.59404 | 3487 ft | 268 kts | 62° |
| 2026-04-23 02:15 | 30.17890 | -97.57544 | 4278 ft | 271 kts | 62° |
| 2026-04-23 02:15 | 30.18846 | -97.55645 | 4989 ft | 277 kts | 62° |
| 2026-04-23 02:16 | 30.19809 | -97.53695 | 5719 ft | 280 kts | 61° |
| 2026-04-23 02:16 | 30.20770 | -97.51732 | 6524 ft | 283 kts | 60° |
| 2026-04-23 02:16 | 30.21696 | -97.49691 | 7145 ft | 289 kts | 71° |
| 2026-04-23 02:16 | 30.21814 | -97.47385 | 7993 ft | 290 kts | 94° |
| 2026-04-23 02:17 | 30.21642 | -97.45036 | 8742 ft | 296 kts | 92° |
| 2026-04-23 02:17 | 30.21561 | -97.42649 | 9552 ft | 299 kts | 88° |
| 2026-04-23 02:17 | 30.21571 | -97.40240 | 10328 ft | 303 kts | 86° |
| 2026-04-23 02:17 | 30.21608 | -97.37714 | 10587 ft | 328 kts | 86° |
| 2026-04-23 02:18 | 30.21646 | -97.34981 | 10811 ft | 351 kts | 87° |
| 2026-04-23 02:18 | 30.21674 | -97.32105 | 11346 ft | 362 kts | 87° |
| 2026-04-23 02:18 | 30.21689 | -97.29172 | 12074 ft | 367 kts | 87° |
| 2026-04-23 02:18 | 30.21695 | -97.26216 | 12860 ft | 370 kts | 88° |
| 2026-04-23 02:19 | 30.21694 | -97.23217 | 13612 ft | 375 kts | 88° |
| 2026-04-23 02:19 | 30.21690 | -97.20178 | 14305 ft | 381 kts | 88° |
| 2026-04-23 02:19 | 30.21683 | -97.17103 | 15015 ft | 385 kts | 88° |
| 2026-04-23 02:19 | 30.21674 | -97.13993 | 15760 ft | 389 kts | 88° |
| 2026-04-23 02:20 | 30.21664 | -97.10848 | 16489 ft | 393 kts | 88° |
| 2026-04-23 02:20 | 30.21653 | -97.07665 | 17179 ft | 398 kts | 88° |
| 2026-04-23 02:20 | 30.21640 | -97.04446 | 17858 ft | 403 kts | 89° |
| 2026-04-23 02:20 | 30.21627 | -97.01186 | 18509 ft | 408 kts | 89° |
| 2026-04-23 02:21 | 30.21613 | -96.97891 | 19082 ft | 412 kts | 89° |
| 2026-04-23 02:21 | 30.21597 | -96.94558 | 19664 ft | 417 kts | 88° |
| 2026-04-23 02:21 | 30.21580 | -96.91240 | 20225 ft | 421 kts | 88° |
| 2026-04-23 02:21 | 30.21563 | -96.87835 | 20754 ft | 427 kts | 88° |
| 2026-04-23 02:22 | 30.21544 | -96.84385 | 21299 ft | 431 kts | 88° |
| 2026-04-23 02:22 | 30.21524 | -96.80909 | 21889 ft | 434 kts | 88° |
| 2026-04-23 02:22 | 30.21504 | -96.77409 | 22460 ft | 437 kts | 88° |
| 2026-04-23 02:22 | 30.21482 | -96.73886 | 22970 ft | 441 kts | 88° |
| 2026-04-23 02:23 | 30.21460 | -96.70320 | 23461 ft | 446 kts | 88° |
| 2026-04-23 02:23 | 30.21436 | -96.66724 | 23868 ft | 449 kts | 88° |
| 2026-04-23 02:23 | 30.21411 | -96.63098 | 24303 ft | 452 kts | 88° |
| 2026-04-23 02:23 | 30.21385 | -96.59451 | 24733 ft | 456 kts | 88° |
| 2026-04-23 02:24 | 30.21357 | -96.55776 | 25148 ft | 459 kts | 88° |
| 2026-04-23 02:24 | 30.21328 | -96.52070 | 25548 ft | 463 kts | 88° |
| 2026-04-23 02:24 | 30.21298 | -96.48338 | 25962 ft | 466 kts | 88° |
| 2026-04-23 02:24 | 30.21267 | -96.44584 | 26392 ft | 469 kts | 88° |
| 2026-04-23 02:25 | 30.21234 | -96.40800 | 26813 ft | 472 kts | 88° |
| 2026-04-23 02:25 | 30.21200 | -96.36998 | 27195 ft | 475 kts | 88° |
| 2026-04-23 02:25 | 30.21165 | -96.33171 | 27575 ft | 478 kts | 88° |
| 2026-04-23 02:25 | 30.21128 | -96.29313 | 27947 ft | 481 kts | 88° |
| 2026-04-23 02:26 | 30.21090 | -96.25430 | 28318 ft | 484 kts | 88° |
| 2026-04-23 02:26 | 30.21051 | -96.21528 | 28673 ft | 487 kts | 88° |
| 2026-04-23 02:26 | 30.21010 | -96.17596 | 29029 ft | 490 kts | 89° |
| 2026-04-23 02:26 | 30.20968 | -96.13644 | 29379 ft | 493 kts | 89° |
| 2026-04-23 02:27 | 30.20924 | -96.09668 | 29732 ft | 496 kts | 89° |
| 2026-04-23 02:27 | 30.20879 | -96.05665 | 30058 ft | 499 kts | 89° |
| 2026-04-23 02:27 | 30.20832 | -96.01644 | 30360 ft | 501 kts | 89° |
| 2026-04-23 02:27 | 30.20784 | -95.97607 | 30670 ft | 503 kts | 89° |
| 2026-04-23 02:28 | 30.20734 | -95.93570 | 31112 ft | 502 kts | 89° |
| 2026-04-23 02:28 | 30.20683 | -95.89547 | 31587 ft | 499 kts | 89° |
| 2026-04-23 02:28 | 30.20631 | -95.85549 | 32058 ft | 496 kts | 89° |
| 2026-04-23 02:28 | 30.20579 | -95.81563 | 32460 ft | 496 kts | 89° |
| 2026-04-23 02:29 | 30.20526 | -95.77577 | 32862 ft | 496 kts | 89° |
| 2026-04-23 02:29 | 30.20471 | -95.73591 | 33235 ft | 496 kts | 89° |
| 2026-04-23 02:29 | 30.20415 | -95.69609 | 33669 ft | 494 kts | 89° |
| 2026-04-23 02:29 | 30.20359 | -95.65693 | 34005 ft | 494 kts | 89° |
| 2026-04-23 02:30 | 30.20301 | -95.61718 | 34352 ft | 496 kts | 89° |
| 2026-04-23 02:30 | 30.20242 | -95.57732 | 34657 ft | 496 kts | 89° |
| 2026-04-23 02:30 | 30.20181 | -95.53757 | 35038 ft | 493 kts | 89° |
| 2026-04-23 02:30 | 30.20120 | -95.49800 | 35427 ft | 491 kts | 89° |
| 2026-04-23 02:31 | 30.20058 | -95.45854 | 35773 ft | 491 kts | 89° |
| 2026-04-23 02:31 | 30.19995 | -95.41912 | 36006 ft | 491 kts | 89° |
| 2026-04-23 02:31 | 30.19930 | -95.37963 | 36299 ft | 491 kts | 89° |
| 2026-04-23 02:31 | 30.19864 | -95.34020 | 36640 ft | 489 kts | 90° |
| 2026-04-23 02:32 | 30.19797 | -95.30096 | 36993 ft | 488 kts | 90° |
| 2026-04-23 02:32 | 30.19683 | -95.23531 | 37001 ft | 495 kts | 90° |
| 2026-04-23 02:33 | 30.19540 | -95.15578 | 37018 ft | 494 kts | 90° |
| 2026-04-23 02:33 | 30.19392 | -95.07707 | 37015 ft | 488 kts | 90° |
| 2026-04-23 02:34 | 30.19242 | -94.99879 | 37019 ft | 487 kts | 90° |
| 2026-04-23 02:34 | 30.19088 | -94.92062 | 37042 ft | 486 kts | 90° |
| 2026-04-23 02:35 | 30.18929 | -94.84244 | 37031 ft | 487 kts | 90° |
| 2026-04-23 02:35 | 30.18765 | -94.76421 | 37038 ft | 487 kts | 90° |
| 2026-04-23 02:36 | 30.18597 | -94.68578 | 37036 ft | 489 kts | 90° |
| 2026-04-23 02:36 | 30.18423 | -94.60717 | 37037 ft | 490 kts | 90° |
| 2026-04-23 02:37 | 30.18244 | -94.52837 | 37046 ft | 491 kts | 90° |
| 2026-04-23 02:37 | 30.18059 | -94.44939 | 37045 ft | 492 kts | 90° |
| 2026-04-23 02:38 | 30.17870 | -94.37032 | 37049 ft | 493 kts | 90° |
| 2026-04-23 02:38 | 30.17676 | -94.29113 | 37055 ft | 493 kts | 90° |
| 2026-04-23 02:39 | 30.17477 | -94.21196 | 37053 ft | 493 kts | 90° |
| 2026-04-23 02:39 | 30.17274 | -94.13284 | 37060 ft | 492 kts | 90° |
| 2026-04-23 02:40 | 30.17067 | -94.05432 | 37044 ft | 492 kts | 90° |
| 2026-04-23 02:40 | 30.16853 | -93.97496 | 37073 ft | 490 kts | 90° |
| 2026-04-23 02:41 | 30.16637 | -93.89682 | 37074 ft | 489 kts | 90° |
| 2026-04-23 02:41 | 30.16416 | -93.81833 | 37084 ft | 488 kts | 91° |
| 2026-04-23 02:42 | 30.16192 | -93.73995 | 37058 ft | 488 kts | 91° |
| 2026-04-23 02:42 | 30.15963 | -93.66165 | 37069 ft | 487 kts | 91° |
| 2026-04-23 02:43 | 30.15728 | -93.58342 | 37076 ft | 487 kts | 91° |
| 2026-04-23 02:43 | 30.15489 | -93.50519 | 37080 ft | 487 kts | 91° |
| 2026-04-23 02:44 | 30.15246 | -93.42698 | 37085 ft | 487 kts | 91° |
| 2026-04-23 02:44 | 30.14998 | -93.34869 | 37081 ft | 488 kts | 91° |
| 2026-04-23 02:45 | 30.14745 | -93.27033 | 37092 ft | 488 kts | 91° |
| 2026-04-23 02:45 | 30.14488 | -93.19190 | 37080 ft | 489 kts | 91° |
| 2026-04-23 02:46 | 30.14272 | -93.11336 | 37086 ft | 489 kts | 88° |
| 2026-04-23 02:46 | 30.14565 | -93.07431 | 37017 ft | 488 kts | 75° |
| 2026-04-23 02:46 | 30.15442 | -93.03676 | 37221 ft | 482 kts | 71° |
| 2026-04-23 02:46 | 30.16432 | -92.99967 | 37119 ft | 485 kts | 71° |
| 2026-04-23 02:47 | 30.17357 | -92.96213 | 37100 ft | 486 kts | 74° |
| 2026-04-23 02:47 | 30.18768 | -92.88555 | 37095 ft | 488 kts | 77° |
| 2026-04-23 02:48 | 30.20078 | -92.80860 | 37088 ft | 488 kts | 76° |
| 2026-04-23 02:48 | 30.21493 | -92.73182 | 37092 ft | 488 kts | 76° |
| 2026-04-23 02:49 | 30.22974 | -92.65515 | 37094 ft | 488 kts | 75° |
| 2026-04-23 02:49 | 30.24462 | -92.57854 | 37088 ft | 488 kts | 75° |
| 2026-04-23 02:50 | 30.25940 | -92.50189 | 37085 ft | 488 kts | 75° |
| 2026-04-23 02:50 | 30.27407 | -92.42534 | 37087 ft | 487 kts | 75° |
| 2026-04-23 02:51 | 30.28866 | -92.34888 | 37093 ft | 486 kts | 75° |
| 2026-04-23 02:51 | 30.30309 | -92.27299 | 37097 ft | 486 kts | 75° |
| 2026-04-23 02:52 | 30.31753 | -92.19679 | 37095 ft | 484 kts | 75° |
| 2026-04-23 02:52 | 30.33190 | -92.12072 | 37093 ft | 483 kts | 75° |
| 2026-04-23 02:53 | 30.34618 | -92.04489 | 37099 ft | 481 kts | 75° |
| 2026-04-23 02:53 | 30.36038 | -91.96925 | 37095 ft | 480 kts | 75° |
| 2026-04-23 02:54 | 30.37452 | -91.89367 | 37102 ft | 480 kts | 75° |
| 2026-04-23 02:54 | 30.38858 | -91.81826 | 37085 ft | 478 kts | 75° |
| 2026-04-23 02:55 | 30.40254 | -91.74314 | 37077 ft | 477 kts | 76° |
| 2026-04-23 02:55 | 30.41641 | -91.66822 | 37082 ft | 475 kts | 76° |
| 2026-04-23 02:56 | 30.43018 | -91.59359 | 37095 ft | 473 kts | 76° |
| 2026-04-23 02:56 | 30.44387 | -91.51916 | 37102 ft | 471 kts | 76° |
| 2026-04-23 02:57 | 30.45748 | -91.44490 | 37090 ft | 471 kts | 76° |
| 2026-04-23 02:57 | 30.47105 | -91.37065 | 37119 ft | 471 kts | 76° |
| 2026-04-23 02:58 | 30.48456 | -91.29631 | 37107 ft | 472 kts | 76° |
| 2026-04-23 02:58 | 30.49401 | -91.22084 | 37125 ft | 474 kts | 82° |
| 2026-04-23 02:59 | 30.50003 | -91.14463 | 37116 ft | 475 kts | 83° |
| 2026-04-23 02:59 | 30.50612 | -91.06824 | 37128 ft | 476 kts | 82° |
| 2026-04-23 03:00 | 30.51281 | -90.99185 | 37112 ft | 477 kts | 82° |
| 2026-04-23 03:00 | 30.51978 | -90.91538 | 37102 ft | 477 kts | 82° |
| 2026-04-23 03:01 | 30.52669 | -90.83942 | 37109 ft | 477 kts | 82° |
| 2026-04-23 03:01 | 30.53359 | -90.76281 | 37124 ft | 478 kts | 82° |
| 2026-04-23 03:02 | 30.54042 | -90.68623 | 37129 ft | 477 kts | 82° |
| 2026-04-23 03:02 | 30.54718 | -90.60976 | 37128 ft | 476 kts | 82° |
| 2026-04-23 03:03 | 30.55389 | -90.53349 | 37152 ft | 474 kts | 82° |
| 2026-04-23 03:03 | 30.56053 | -90.45740 | 37137 ft | 474 kts | 82° |
| 2026-04-23 03:04 | 30.56711 | -90.38146 | 37163 ft | 472 kts | 82° |
| 2026-04-23 03:04 | 30.57363 | -90.30584 | 37142 ft | 471 kts | 82° |
| 2026-04-23 03:05 | 30.58008 | -90.23044 | 37142 ft | 468 kts | 82° |
| 2026-04-23 03:05 | 30.58646 | -90.15529 | 37132 ft | 467 kts | 82° |
| 2026-04-23 03:06 | 30.59278 | -90.08048 | 37122 ft | 466 kts | 82° |
| 2026-04-23 03:06 | 30.59904 | -90.00570 | 37114 ft | 465 kts | 82° |
| 2026-04-23 03:07 | 30.60526 | -89.93103 | 37143 ft | 465 kts | 83° |
| 2026-04-23 03:07 | 30.61143 | -89.85645 | 37154 ft | 464 kts | 83° |
| 2026-04-23 03:08 | 30.61753 | -89.78194 | 37141 ft | 463 kts | 83° |
| 2026-04-23 03:08 | 30.62360 | -89.70746 | 37126 ft | 463 kts | 83° |
| 2026-04-23 03:09 | 30.62961 | -89.63306 | 37132 ft | 463 kts | 83° |
| 2026-04-23 03:09 | 30.63556 | -89.55903 | 37141 ft | 463 kts | 83° |
| 2026-04-23 03:10 | 30.64151 | -89.48452 | 37129 ft | 464 kts | 83° |
| 2026-04-23 03:10 | 30.64741 | -89.40998 | 37133 ft | 464 kts | 83° |
| 2026-04-23 03:11 | 30.65328 | -89.33532 | 37137 ft | 464 kts | 83° |
| 2026-04-23 03:11 | 30.65910 | -89.26070 | 37130 ft | 464 kts | 83° |
| 2026-04-23 03:12 | 30.66488 | -89.18605 | 37149 ft | 464 kts | 83° |
| 2026-04-23 03:12 | 30.67062 | -89.11143 | 36828 ft | 464 kts | 84° |
| 2026-04-23 03:12 | 30.67346 | -89.07414 | 36538 ft | 462 kts | 84° |
| 2026-04-23 03:13 | 30.67627 | -89.03716 | 36318 ft | 458 kts | 84° |
| 2026-04-23 03:13 | 30.67907 | -89.00021 | 36057 ft | 460 kts | 84° |
| 2026-04-23 03:13 | 30.68187 | -88.96316 | 35814 ft | 461 kts | 84° |
| 2026-04-23 03:13 | 30.68467 | -88.92603 | 35581 ft | 462 kts | 84° |
| 2026-04-23 03:14 | 30.68745 | -88.88890 | 35341 ft | 462 kts | 84° |
| 2026-04-23 03:14 | 30.69023 | -88.85169 | 35108 ft | 462 kts | 84° |
| 2026-04-23 03:14 | 30.69300 | -88.81446 | 34876 ft | 462 kts | 84° |
| 2026-04-23 03:14 | 30.69575 | -88.77734 | 34648 ft | 462 kts | 84° |
| 2026-04-23 03:15 | 30.69849 | -88.74018 | 34429 ft | 461 kts | 84° |
| 2026-04-23 03:15 | 30.70122 | -88.70307 | 34198 ft | 461 kts | 84° |
| 2026-04-23 03:15 | 30.70393 | -88.66600 | 33939 ft | 460 kts | 84° |
| 2026-04-23 03:15 | 30.70659 | -88.62944 | 33687 ft | 460 kts | 84° |
| 2026-04-23 03:16 | 30.70928 | -88.59241 | 33423 ft | 460 kts | 84° |
| 2026-04-23 03:16 | 30.71196 | -88.55539 | 33165 ft | 460 kts | 84° |
| 2026-04-23 03:16 | 30.71730 | -88.48132 | 32667 ft | 461 kts | 84° |
| 2026-04-23 03:17 | 30.71996 | -88.44415 | 32426 ft | 461 kts | 84° |
| 2026-04-23 03:17 | 30.72260 | -88.40698 | 32180 ft | 462 kts | 84° |
| 2026-04-23 03:17 | 30.72524 | -88.36982 | 31936 ft | 462 kts | 84° |
| 2026-04-23 03:17 | 30.72783 | -88.33259 | 31694 ft | 463 kts | 84° |
| 2026-04-23 03:18 | 30.73029 | -88.29526 | 31446 ft | 463 kts | 84° |
| 2026-04-23 03:18 | 30.73269 | -88.25794 | 31207 ft | 463 kts | 84° |
| 2026-04-23 03:18 | 30.73506 | -88.22061 | 30971 ft | 463 kts | 84° |
| 2026-04-23 03:18 | 30.73743 | -88.18335 | 30733 ft | 462 kts | 84° |
| 2026-04-23 03:19 | 30.73979 | -88.14614 | 30496 ft | 461 kts | 84° |
| 2026-04-23 03:19 | 30.74214 | -88.10909 | 30270 ft | 459 kts | 84° |
| 2026-04-23 03:19 | 30.74448 | -88.07216 | 29997 ft | 457 kts | 84° |
| 2026-04-23 03:19 | 30.74681 | -88.03542 | 29721 ft | 455 kts | 84° |
| 2026-04-23 03:20 | 30.74911 | -87.99883 | 29444 ft | 453 kts | 84° |
| 2026-04-23 03:20 | 30.75139 | -87.96243 | 29168 ft | 451 kts | 84° |
| 2026-04-23 03:20 | 30.75366 | -87.92614 | 28902 ft | 449 kts | 84° |
| 2026-04-23 03:20 | 30.75590 | -87.89004 | 28636 ft | 447 kts | 84° |
| 2026-04-23 03:21 | 30.75738 | -87.86617 | 28460 ft | 446 kts | 84° |
| 2026-04-23 03:21 | 30.75960 | -87.83026 | 28197 ft | 445 kts | 84° |
| 2026-04-23 03:21 | 30.76180 | -87.79446 | 27940 ft | 444 kts | 84° |
| 2026-04-23 03:21 | 30.76399 | -87.75869 | 27678 ft | 443 kts | 84° |
| 2026-04-23 03:22 | 30.76616 | -87.72308 | 27421 ft | 442 kts | 84° |
| 2026-04-23 03:22 | 30.76832 | -87.68746 | 27179 ft | 441 kts | 84° |
| 2026-04-23 03:22 | 30.77049 | -87.65192 | 26927 ft | 440 kts | 84° |
| 2026-04-23 03:22 | 30.77264 | -87.61641 | 26676 ft | 440 kts | 84° |
| 2026-04-23 03:23 | 30.77478 | -87.58097 | 26429 ft | 439 kts | 84° |
| 2026-04-23 03:23 | 30.77691 | -87.54558 | 26173 ft | 439 kts | 84° |
| 2026-04-23 03:23 | 30.77902 | -87.51021 | 25937 ft | 438 kts | 84° |
| 2026-04-23 03:23 | 30.78112 | -87.47496 | 25698 ft | 437 kts | 84° |
| 2026-04-23 03:24 | 30.78321 | -87.43971 | 25458 ft | 436 kts | 84° |
| 2026-04-23 03:24 | 30.78527 | -87.40464 | 25225 ft | 435 kts | 84° |
| 2026-04-23 03:24 | 30.78733 | -87.36958 | 24983 ft | 433 kts | 84° |
| 2026-04-23 03:24 | 30.78937 | -87.33467 | 24755 ft | 432 kts | 84° |
| 2026-04-23 03:25 | 30.79139 | -87.29985 | 24530 ft | 431 kts | 84° |
| 2026-04-23 03:25 | 30.79341 | -87.26510 | 24297 ft | 430 kts | 84° |
| 2026-04-23 03:25 | 30.79538 | -87.23088 | 24067 ft | 430 kts | 84° |
| 2026-04-23 03:25 | 30.79736 | -87.19625 | 23844 ft | 429 kts | 84° |
| 2026-04-23 03:26 | 30.79934 | -87.16166 | 23626 ft | 428 kts | 84° |
| 2026-04-23 03:26 | 30.80130 | -87.12717 | 23367 ft | 427 kts | 84° |
| 2026-04-23 03:26 | 30.80325 | -87.09277 | 23106 ft | 426 kts | 84° |
| 2026-04-23 03:26 | 30.80518 | -87.05845 | 22838 ft | 424 kts | 84° |
| 2026-04-23 03:27 | 30.80709 | -87.02432 | 22580 ft | 422 kts | 84° |
| 2026-04-23 03:27 | 30.80899 | -86.99038 | 22321 ft | 419 kts | 84° |
| 2026-04-23 03:27 | 30.81086 | -86.95662 | 22059 ft | 417 kts | 84° |
| 2026-04-23 03:27 | 30.81272 | -86.92311 | 21806 ft | 414 kts | 84° |
| 2026-04-23 03:28 | 30.81456 | -86.88975 | 21556 ft | 412 kts | 84° |
| 2026-04-23 03:28 | 30.81638 | -86.85663 | 21306 ft | 410 kts | 85° |
| 2026-04-23 03:28 | 30.81818 | -86.82365 | 21054 ft | 407 kts | 85° |
| 2026-04-23 03:28 | 30.81997 | -86.79085 | 20817 ft | 405 kts | 85° |
| 2026-04-23 03:29 | 30.82174 | -86.75817 | 20591 ft | 404 kts | 85° |
| 2026-04-23 03:29 | 30.82350 | -86.72567 | 20363 ft | 402 kts | 85° |
| 2026-04-23 03:29 | 30.82524 | -86.69335 | 20116 ft | 400 kts | 85° |
| 2026-04-23 03:29 | 30.82632 | -86.66109 | 19877 ft | 399 kts | 88° |
| 2026-04-23 03:30 | 30.82600 | -86.62891 | 19650 ft | 397 kts | 90° |
| 2026-04-23 03:30 | 30.82513 | -86.59689 | 19413 ft | 395 kts | 91° |
| 2026-04-23 03:30 | 30.82415 | -86.56499 | 19196 ft | 393 kts | 91° |
| 2026-04-23 03:30 | 30.82324 | -86.53333 | 18956 ft | 391 kts | 90° |
| 2026-04-23 03:31 | 30.82243 | -86.50176 | 18731 ft | 389 kts | 90° |
| 2026-04-23 03:31 | 30.82170 | -86.47039 | 18498 ft | 387 kts | 90° |
| 2026-04-23 03:31 | 30.82100 | -86.43923 | 18242 ft | 385 kts | 90° |
| 2026-04-23 03:31 | 30.82033 | -86.40820 | 17971 ft | 383 kts | 90° |
| 2026-04-23 03:32 | 30.81965 | -86.37729 | 17715 ft | 381 kts | 90° |
| 2026-04-23 03:32 | 30.81897 | -86.34652 | 17448 ft | 380 kts | 90° |
| 2026-04-23 03:32 | 30.81829 | -86.31585 | 17196 ft | 379 kts | 90° |
| 2026-04-23 03:32 | 30.81760 | -86.28526 | 16941 ft | 378 kts | 90° |
| 2026-04-23 03:33 | 30.81690 | -86.25473 | 16674 ft | 377 kts | 90° |
| 2026-04-23 03:33 | 30.81620 | -86.22427 | 16421 ft | 376 kts | 90° |
| 2026-04-23 03:33 | 30.81550 | -86.19392 | 16170 ft | 375 kts | 90° |
| 2026-04-23 03:33 | 30.81478 | -86.16365 | 15910 ft | 374 kts | 90° |
| 2026-04-23 03:34 | 30.81307 | -86.13351 | 15639 ft | 374 kts | 97° |
| 2026-04-23 03:34 | 30.80593 | -86.10442 | 15332 ft | 375 kts | 111° |
| 2026-04-23 03:34 | 30.79555 | -86.07688 | 15220 ft | 370 kts | 114° |
| 2026-04-23 03:34 | 30.78507 | -86.04951 | 14918 ft | 371 kts | 112° |
| 2026-04-23 03:35 | 30.77582 | -86.02163 | 14700 ft | 369 kts | 109° |
| 2026-04-23 03:35 | 30.76752 | -85.99346 | 14474 ft | 368 kts | 108° |
| 2026-04-23 03:35 | 30.75940 | -85.96530 | 14238 ft | 367 kts | 108° |
| 2026-04-23 03:35 | 30.75114 | -85.93728 | 14008 ft | 366 kts | 108° |
| 2026-04-23 03:36 | 30.74270 | -85.90939 | 13751 ft | 365 kts | 109° |
| 2026-04-23 03:36 | 30.73410 | -85.88163 | 13465 ft | 364 kts | 109° |
| 2026-04-23 03:36 | 30.72543 | -85.85406 | 13228 ft | 362 kts | 109° |
| 2026-04-23 03:36 | 30.71671 | -85.82665 | 12960 ft | 361 kts | 109° |
| 2026-04-23 03:37 | 30.70800 | -85.79939 | 12706 ft | 359 kts | 110° |
| 2026-04-23 03:37 | 30.69930 | -85.77228 | 12460 ft | 357 kts | 110° |
| 2026-04-23 03:37 | 30.69064 | -85.74534 | 12196 ft | 355 kts | 110° |
| 2026-04-23 03:37 | 30.68202 | -85.71855 | 11949 ft | 353 kts | 110° |
| 2026-04-23 03:38 | 30.67344 | -85.69193 | 11689 ft | 351 kts | 110° |
| 2026-04-23 03:38 | 30.66491 | -85.66546 | 11464 ft | 349 kts | 110° |
| 2026-04-23 03:38 | 30.65640 | -85.63908 | 11210 ft | 348 kts | 110° |
| 2026-04-23 03:38 | 30.64794 | -85.61288 | 10975 ft | 346 kts | 110° |
| 2026-04-23 03:39 | 30.63950 | -85.58679 | 10730 ft | 343 kts | 110° |
| 2026-04-23 03:39 | 30.63123 | -85.56120 | 10488 ft | 334 kts | 110° |
| 2026-04-23 03:39 | 30.62325 | -85.53653 | 10230 ft | 319 kts | 110° |
| 2026-04-23 03:39 | 30.61565 | -85.51302 | 9979 ft | 303 kts | 110° |
| 2026-04-23 03:40 | 30.60847 | -85.49086 | 9704 ft | 292 kts | 110° |
| 2026-04-23 03:40 | 30.60134 | -85.46888 | 9447 ft | 290 kts | 110° |
| 2026-04-23 03:40 | 30.59423 | -85.44700 | 9184 ft | 289 kts | 110° |
| 2026-04-23 03:40 | 30.58716 | -85.42523 | 8948 ft | 287 kts | 110° |
| 2026-04-23 03:41 | 30.58014 | -85.40362 | 8696 ft | 285 kts | 110° |
| 2026-04-23 03:41 | 30.57317 | -85.38217 | 8428 ft | 284 kts | 110° |
| 2026-04-23 03:41 | 30.56623 | -85.36084 | 8184 ft | 281 kts | 110° |
| 2026-04-23 03:41 | 30.55928 | -85.33950 | 7945 ft | 284 kts | 110° |
| 2026-04-23 03:42 | 30.55235 | -85.31820 | 7727 ft | 281 kts | 110° |
| 2026-04-23 03:42 | 30.54542 | -85.29695 | 7474 ft | 284 kts | 110° |
| 2026-04-23 03:42 | 30.53827 | -85.27501 | 7249 ft | 293 kts | 110° |
| 2026-04-23 03:42 | 30.53109 | -85.25303 | 6985 ft | 289 kts | 110° |
| 2026-04-23 03:43 | 30.52407 | -85.23151 | 6735 ft | 282 kts | 110° |
| 2026-04-23 03:43 | 30.52030 | -85.20980 | 6391 ft | 272 kts | 89° |
| 2026-04-23 03:43 | 30.52141 | -85.18839 | 6254 ft | 262 kts | 86° |
| 2026-04-23 03:43 | 30.52245 | -85.16731 | 5956 ft | 262 kts | 88° |
| 2026-04-23 03:44 | 30.52296 | -85.14627 | 5730 ft | 260 kts | 89° |
| 2026-04-23 03:44 | 30.52340 | -85.12524 | 5469 ft | 261 kts | 89° |
| 2026-04-23 03:44 | 30.52384 | -85.10415 | 5236 ft | 263 kts | 89° |
| 2026-04-23 03:44 | 30.52432 | -85.08294 | 5033 ft | 262 kts | 89° |
| 2026-04-23 03:45 | 30.52483 | -85.06181 | 5015 ft | 263 kts | 89° |
| 2026-04-23 03:45 | 30.52517 | -85.04069 | 4945 ft | 261 kts | 95° |
| 2026-04-23 03:45 | 30.51817 | -85.02166 | 4555 ft | 263 kts | 137° |
| 2026-04-23 03:45 | 30.50250 | -85.01138 | 4415 ft | 258 kts | 159° |
| 2026-04-23 03:46 | 30.48470 | -85.00774 | 4106 ft | 263 kts | 181° |
| 2026-04-23 03:46 | 30.46707 | -85.01301 | 3872 ft | 265 kts | 206° |
| 2026-04-23 03:46 | 30.45274 | -85.02654 | 3631 ft | 270 kts | 230° |
| 2026-04-23 03:46 | 30.44213 | -85.04430 | 3439 ft | 267 kts | 236° |
| 2026-04-23 03:47 | 30.43237 | -85.06243 | 3185 ft | 264 kts | 235° |
| 2026-04-23 03:47 | 30.42243 | -85.08028 | 3030 ft | 263 kts | 233° |
| 2026-04-23 03:47 | 30.41224 | -85.09781 | 2996 ft | 262 kts | 233° |
| 2026-04-23 03:47 | 30.40200 | -85.11522 | 2999 ft | 260 kts | 233° |
| 2026-04-23 03:48 | 30.39185 | -85.13256 | 2984 ft | 260 kts | 233° |
| 2026-04-23 03:48 | 30.38171 | -85.14997 | 2984 ft | 262 kts | 233° |
| 2026-04-23 03:48 | 30.37148 | -85.16753 | 2963 ft | 264 kts | 233° |
| 2026-04-23 03:48 | 30.36122 | -85.18515 | 2995 ft | 263 kts | 233° |
| 2026-04-23 03:49 | 30.35098 | -85.20274 | 2963 ft | 263 kts | 233° |
| 2026-04-23 03:49 | 30.34074 | -85.22032 | 2961 ft | 264 kts | 233° |
| 2026-04-23 03:49 | 30.33053 | -85.23789 | 3002 ft | 261 kts | 233° |
| 2026-04-23 03:49 | 30.32048 | -85.25520 | 2940 ft | 264 kts | 233° |
| 2026-04-23 03:50 | 30.31018 | -85.27293 | 2986 ft | 263 kts | 233° |
| 2026-04-23 03:50 | 30.30008 | -85.29029 | 2975 ft | 262 kts | 233° |
| 2026-04-23 03:50 | 30.28983 | -85.30789 | 2946 ft | 266 kts | 233° |
| 2026-04-23 03:50 | 30.27952 | -85.32563 | 2967 ft | 264 kts | 233° |
| 2026-04-23 03:51 | 30.26931 | -85.34319 | 2972 ft | 263 kts | 233° |
| 2026-04-23 03:51 | 30.25903 | -85.36080 | 2933 ft | 265 kts | 233° |
| 2026-04-23 03:51 | 30.24881 | -85.37834 | 2973 ft | 260 kts | 233° |
| 2026-04-23 03:51 | 30.23891 | -85.39537 | 2971 ft | 249 kts | 233° |
| 2026-04-23 03:52 | 30.22939 | -85.41167 | 2944 ft | 239 kts | 232° |
| 2026-04-23 03:52 | 30.22036 | -85.42720 | 2984 ft | 228 kts | 232° |
| 2026-04-23 03:52 | 30.21164 | -85.44228 | 2982 ft | 224 kts | 234° |
| 2026-04-23 03:52 | 30.20543 | -85.45900 | 2992 ft | 230 kts | 252° |
| 2026-04-23 03:53 | 30.20202 | -85.47716 | 2997 ft | 232 kts | 255° |
| 2026-04-23 03:53 | 30.19951 | -85.49567 | 2996 ft | 233 kts | 261° |
| 2026-04-23 03:53 | 30.19832 | -85.51432 | 2988 ft | 233 kts | 263° |
| 2026-04-23 03:53 | 30.19735 | -85.53303 | 2985 ft | 233 kts | 263° |
| 2026-04-23 03:54 | 30.19637 | -85.55173 | 2969 ft | 235 kts | 263° |
| 2026-04-23 03:54 | 30.19526 | -85.57055 | 3012 ft | 235 kts | 263° |
| 2026-04-23 03:54 | 30.19408 | -85.58945 | 2984 ft | 234 kts | 263° |
| 2026-04-23 03:54 | 30.19287 | -85.60813 | 2978 ft | 233 kts | 262° |
| 2026-04-23 03:55 | 30.19163 | -85.62680 | 2997 ft | 233 kts | 262° |
| 2026-04-23 03:55 | 30.19036 | -85.64549 | 2997 ft | 233 kts | 262° |
| 2026-04-23 03:55 | 30.18921 | -85.66424 | 2986 ft | 235 kts | 266° |
| 2026-04-23 03:55 | 30.19295 | -85.68233 | 2865 ft | 230 kts | 300° |
| 2026-04-23 03:56 | 30.20111 | -85.69723 | 2864 ft | 211 kts | 301° |
| 2026-04-23 03:56 | 30.20830 | -85.71144 | 2733 ft | 198 kts | 298° |
| 2026-04-23 03:56 | 30.21473 | -85.72491 | 2625 ft | 186 kts | 297° |
| 2026-04-23 03:56 | 30.22182 | -85.73684 | 2474 ft | 176 kts | 322° |
| 2026-04-23 03:57 | 30.23229 | -85.74207 | 2396 ft | 165 kts | 346° |
| 2026-04-23 03:57 | 30.24322 | -85.74635 | 2168 ft | 165 kts | 343° |
| 2026-04-23 03:57 | 30.25394 | -85.75076 | 1964 ft | 161 kts | 342° |
| 2026-04-23 03:57 | 30.26436 | -85.75510 | 1742 ft | 158 kts | 342° |
| 2026-04-23 03:58 | 30.27466 | -85.75947 | 1542 ft | 158 kts | 341° |
| 2026-04-23 03:58 | 30.28491 | -85.76386 | 1340 ft | 156 kts | 341° |
| 2026-04-23 03:58 | 30.29502 | -85.76821 | 1132 ft | 154 kts | 341° |
| 2026-04-23 03:58 | 30.30507 | -85.77254 | 948 ft | 154 kts | 340° |
| 2026-04-23 03:59 | 30.31489 | -85.77679 | 722 ft | 146 kts | 340° |
| 2026-04-23 03:59 | 30.32429 | -85.78087 | 540 ft | 144 kts | 340° |
| 2026-04-23 03:59 | 30.33344 | -85.78485 | 339 ft | 137 kts | 339° |
| 2026-04-23 03:59 | 30.34231 | -85.78867 | 151 ft | 137 kts | 339° |
| 2026-04-23 04:00 | 30.35119 | -85.79251 | 64 ft | 133 kts | 340° |
| 2026-04-23 04:00 | 30.35568 | -85.79481 | 71 ft | 19 kts | 283° |
| 2026-04-23 04:00 | 30.35562 | -85.79532 | 69 ft | 0 kts | 251° |
| 2026-04-23 04:01 | 30.35560 | -85.79538 | 69 ft | 3 kts | 251° |
| 2026-04-23 04:01 | 30.35536 | -85.79616 | 64 ft | 17 kts | 248° |
| 2026-04-23 04:01 | 30.35498 | -85.79774 | 65 ft | 14 kts | 285° |
| 2026-04-23 04:02 | 30.35506 | -85.79824 | 65 ft | 0 kts | 268° |